sensor_id;sensor_type;location;lat;lon;timestamp;P1;durP1;ratioP1;P2;durP2;ratioP2
25511;SDS011;13414;44.534;18.700;2023-11-22T00:00:34;42.90;;;27.88;;
25511;SDS011;13414;44.534;18.700;2023-11-22T00:03:02;42.70;;;28.20;;
25511;SDS011;13414;44.534;18.700;2023-11-22T00:05:30;40.70;;;26.33;;
25511;SDS011;13414;44.534;18.700;2023-11-22T00:07:59;36.08;;;25.70;;
25511;SDS011;13414;44.534;18.700;2023-11-22T00:10:27;36.53;;;25.60;;
25511;SDS011;13414;44.534;18.700;2023-11-22T00:12:57;38.58;;;27.45;;
25511;SDS011;13414;44.534;18.700;2023-11-22T00:15:24;39.05;;;27.38;;
25511;SDS011;13414;44.534;18.700;2023-11-22T00:17:52;38.85;;;26.90;;
25511;SDS011;13414;44.534;18.700;2023-11-22T00:20:20;39.15;;;26.70;;
25511;SDS011;13414;44.534;18.700;2023-11-22T00:22:47;40.72;;;26.75;;
25511;SDS011;13414;44.534;18.700;2023-11-22T00:25:17;35.67;;;24.92;;
25511;SDS011;13414;44.534;18.700;2023-11-22T00:27:46;36.00;;;24.67;;
25511;SDS011;13414;44.534;18.700;2023-11-22T00:30:14;38.50;;;25.58;;
25511;SDS011;13414;44.534;18.700;2023-11-22T00:32:42;37.97;;;23.83;;
25511;SDS011;13414;44.534;18.700;2023-11-22T00:35:10;33.60;;;23.25;;
25511;SDS011;13414;44.534;18.700;2023-11-22T00:37:37;36.97;;;25.88;;
25511;SDS011;13414;44.534;18.700;2023-11-22T00:40:06;35.80;;;24.15;;
25511;SDS011;13414;44.534;18.700;2023-11-22T00:42:39;34.00;;;22.65;;
25511;SDS011;13414;44.534;18.700;2023-11-22T00:47:48;33.50;;;25.58;;
25511;SDS011;13414;44.534;18.700;2023-11-22T00:50:23;31.08;;;23.80;;
25511;SDS011;13414;44.534;18.700;2023-11-22T00:52:57;30.75;;;23.83;;
25511;SDS011;13414;44.534;18.700;2023-11-22T00:55:47;29.95;;;23.75;;
25511;SDS011;13414;44.534;18.700;2023-11-22T00:58:22;31.38;;;24.15;;
25511;SDS011;13414;44.534;18.700;2023-11-22T01:00:54;37.45;;;28.45;;
25511;SDS011;13414;44.534;18.700;2023-11-22T01:03:34;34.78;;;27.33;;
25511;SDS011;13414;44.534;18.700;2023-11-22T01:06:03;34.85;;;25.98;;
25511;SDS011;13414;44.534;18.700;2023-11-22T01:08:36;31.83;;;24.88;;
25511;SDS011;13414;44.534;18.700;2023-11-22T01:11:11;31.93;;;25.30;;
25511;SDS011;13414;44.534;18.700;2023-11-22T01:13:44;32.00;;;24.65;;
25511;SDS011;13414;44.534;18.700;2023-11-22T01:16:21;34.50;;;25.60;;
25511;SDS011;13414;44.534;18.700;2023-11-22T01:19:07;33.25;;;24.40;;
25511;SDS011;13414;44.534;18.700;2023-11-22T01:21:39;32.63;;;23.77;;
25511;SDS011;13414;44.534;18.700;2023-11-22T01:24:16;37.92;;;24.02;;
25511;SDS011;13414;44.534;18.700;2023-11-22T01:27:03;36.67;;;24.80;;
25511;SDS011;13414;44.534;18.700;2023-11-22T01:30:01;35.33;;;24.73;;
25511;SDS011;13414;44.534;18.700;2023-11-22T01:32:51;34.58;;;24.40;;
25511;SDS011;13414;44.534;18.700;2023-11-22T01:35:40;30.45;;;22.40;;
25511;SDS011;13414;44.534;18.700;2023-11-22T01:38:51;32.78;;;23.67;;
25511;SDS011;13414;44.534;18.700;2023-11-22T01:50:49;29.52;;;22.00;;
25511;SDS011;13414;44.534;18.700;2023-11-22T01:52:53;28.50;;;19.15;;
25511;SDS011;13414;44.534;18.700;2023-11-22T02:00:24;27.17;;;19.40;;
25511;SDS011;13414;44.534;18.700;2023-11-22T02:10:40;28.48;;;19.85;;
25511;SDS011;13414;44.534;18.700;2023-11-22T02:13:46;38.03;;;24.63;;
25511;SDS011;13414;44.534;18.700;2023-11-22T02:23:13;29.95;;;21.63;;
25511;SDS011;13414;44.534;18.700;2023-11-22T02:26:21;31.02;;;20.98;;
25511;SDS011;13414;44.534;18.700;2023-11-22T02:29:25;28.60;;;20.67;;
25511;SDS011;13414;44.534;18.700;2023-11-22T02:32:23;31.77;;;22.83;;
25511;SDS011;13414;44.534;18.700;2023-11-22T02:35:17;29.38;;;22.67;;
25511;SDS011;13414;44.534;18.700;2023-11-22T02:53:16;31.85;;;23.58;;
25511;SDS011;13414;44.534;18.700;2023-11-22T02:56:43;29.40;;;24.33;;
25511;SDS011;13414;44.534;18.700;2023-11-22T02:59:53;32.13;;;24.05;;
25511;SDS011;13414;44.534;18.700;2023-11-22T03:02:41;28.88;;;23.10;;
25511;SDS011;13414;44.534;18.700;2023-11-22T03:05:40;28.05;;;22.60;;
25511;SDS011;13414;44.534;18.700;2023-11-22T03:08:44;29.65;;;21.67;;
25511;SDS011;13414;44.534;18.700;2023-11-22T03:12:22;33.88;;;22.23;;
25511;SDS011;13414;44.534;18.700;2023-11-22T03:15:17;28.80;;;21.15;;
25511;SDS011;13414;44.534;18.700;2023-11-22T03:18:27;30.38;;;20.42;;
25511;SDS011;13414;44.534;18.700;2023-11-22T03:21:09;28.88;;;20.83;;
25511;SDS011;13414;44.534;18.700;2023-11-22T03:27:12;25.67;;;18.63;;
25511;SDS011;13414;44.534;18.700;2023-11-22T03:30:33;29.70;;;19.33;;
25511;SDS011;13414;44.534;18.700;2023-11-22T03:33:22;38.35;;;24.00;;
25511;SDS011;13414;44.534;18.700;2023-11-22T03:36:31;30.50;;;21.00;;
25511;SDS011;13414;44.534;18.700;2023-11-22T03:39:41;34.00;;;23.58;;
25511;SDS011;13414;44.534;18.700;2023-11-22T03:42:39;31.27;;;22.27;;
25511;SDS011;13414;44.534;18.700;2023-11-22T03:46:00;37.42;;;21.30;;
25511;SDS011;13414;44.534;18.700;2023-11-22T03:49:45;27.40;;;19.48;;
25511;SDS011;13414;44.534;18.700;2023-11-22T03:52:38;22.20;;;15.50;;
25511;SDS011;13414;44.534;18.700;2023-11-22T04:02:29;17.55;;;12.63;;
25511;SDS011;13414;44.534;18.700;2023-11-22T04:05:24;25.98;;;16.75;;
25511;SDS011;13414;44.534;18.700;2023-11-22T04:12:15;26.65;;;19.30;;
25511;SDS011;13414;44.534;18.700;2023-11-22T05:48:41;29.23;;;21.48;;
25511;SDS011;13414;44.534;18.700;2023-11-22T05:59:05;36.53;;;23.05;;
25511;SDS011;13414;44.534;18.700;2023-11-22T06:02:12;37.13;;;27.23;;
25511;SDS011;13414;44.534;18.700;2023-11-22T06:05:25;40.30;;;29.55;;
25511;SDS011;13414;44.534;18.700;2023-11-22T06:09:50;36.13;;;26.75;;
25511;SDS011;13414;44.534;18.700;2023-11-22T06:17:12;39.45;;;28.58;;
25511;SDS011;13414;44.534;18.700;2023-11-22T12:42:59;24.05;;;15.07;;
25511;SDS011;13414;44.534;18.700;2023-11-22T12:45:28;36.13;;;19.95;;
25511;SDS011;13414;44.534;18.700;2023-11-22T12:47:56;44.47;;;28.20;;
25511;SDS011;13414;44.534;18.700;2023-11-22T12:50:32;28.58;;;16.52;;
25511;SDS011;13414;44.534;18.700;2023-11-22T12:53:09;27.10;;;18.02;;
25511;SDS011;13414;44.534;18.700;2023-11-22T12:55:38;27.85;;;18.25;;
25511;SDS011;13414;44.534;18.700;2023-11-22T12:58:11;22.42;;;15.10;;
25511;SDS011;13414;44.534;18.700;2023-11-22T13:00:39;18.98;;;12.43;;
25511;SDS011;13414;44.534;18.700;2023-11-22T13:03:07;22.88;;;13.85;;
25511;SDS011;13414;44.534;18.700;2023-11-22T13:05:36;24.58;;;16.20;;
25511;SDS011;13414;44.534;18.700;2023-11-22T13:08:04;24.55;;;16.35;;
25511;SDS011;13414;44.534;18.700;2023-11-22T13:10:31;26.73;;;17.60;;
25511;SDS011;13414;44.534;18.700;2023-11-22T13:12:59;20.42;;;14.48;;
25511;SDS011;13414;44.534;18.700;2023-11-22T13:15:29;23.33;;;16.88;;
25511;SDS011;13414;44.534;18.700;2023-11-22T13:17:56;29.83;;;18.92;;
25511;SDS011;13414;44.534;18.700;2023-11-22T13:20:24;31.90;;;20.48;;
25511;SDS011;13414;44.534;18.700;2023-11-22T13:22:52;25.92;;;16.88;;
25511;SDS011;13414;44.534;18.700;2023-11-22T13:25:20;29.42;;;19.45;;
25511;SDS011;13414;44.534;18.700;2023-11-22T13:27:49;24.45;;;17.83;;
25511;SDS011;13414;44.534;18.700;2023-11-22T13:30:20;25.60;;;17.88;;
25511;SDS011;13414;44.534;18.700;2023-11-22T13:32:52;30.90;;;20.30;;
25511;SDS011;13414;44.534;18.700;2023-11-22T13:35:22;20.13;;;14.45;;
25511;SDS011;13414;44.534;18.700;2023-11-22T13:37:49;26.10;;;17.85;;
25511;SDS011;13414;44.534;18.700;2023-11-22T13:40:18;28.83;;;19.42;;
25511;SDS011;13414;44.534;18.700;2023-11-22T13:42:47;24.13;;;16.33;;
25511;SDS011;13414;44.534;18.700;2023-11-22T13:45:18;23.15;;;16.02;;
25511;SDS011;13414;44.534;18.700;2023-11-22T13:47:47;32.90;;;22.65;;
25511;SDS011;13414;44.534;18.700;2023-11-22T13:50:19;37.20;;;28.52;;
25511;SDS011;13414;44.534;18.700;2023-11-22T13:52:47;36.45;;;27.92;;
25511;SDS011;13414;44.534;18.700;2023-11-22T13:55:15;31.15;;;23.75;;
25511;SDS011;13414;44.534;18.700;2023-11-22T13:57:47;29.25;;;23.55;;
25511;SDS011;13414;44.534;18.700;2023-11-22T14:00:16;31.55;;;24.08;;
25511;SDS011;13414;44.534;18.700;2023-11-22T14:02:45;39.53;;;27.42;;
25511;SDS011;13414;44.534;18.700;2023-11-22T14:05:12;32.88;;;25.02;;
25511;SDS011;13414;44.534;18.700;2023-11-22T14:07:42;43.63;;;33.40;;
25511;SDS011;13414;44.534;18.700;2023-11-22T14:10:10;55.05;;;42.90;;
25511;SDS011;13414;44.534;18.700;2023-11-22T14:12:41;38.08;;;27.50;;
25511;SDS011;13414;44.534;18.700;2023-11-22T14:15:09;31.08;;;21.08;;
25511;SDS011;13414;44.534;18.700;2023-11-22T14:17:37;32.80;;;22.02;;
25511;SDS011;13414;44.534;18.700;2023-11-22T14:20:10;28.88;;;19.35;;
25511;SDS011;13414;44.534;18.700;2023-11-22T14:22:39;32.92;;;21.85;;
25511;SDS011;13414;44.534;18.700;2023-11-22T14:25:09;36.38;;;22.30;;
25511;SDS011;13414;44.534;18.700;2023-11-22T14:27:41;33.90;;;22.92;;
25511;SDS011;13414;44.534;18.700;2023-11-22T14:30:11;33.40;;;22.80;;
25511;SDS011;13414;44.534;18.700;2023-11-22T14:32:41;32.33;;;22.17;;
25511;SDS011;13414;44.534;18.700;2023-11-22T14:35:09;33.72;;;23.08;;
25511;SDS011;13414;44.534;18.700;2023-11-22T14:37:38;36.05;;;24.25;;
25511;SDS011;13414;44.534;18.700;2023-11-22T14:40:10;37.95;;;25.90;;
25511;SDS011;13414;44.534;18.700;2023-11-22T14:42:41;31.95;;;21.85;;
25511;SDS011;13414;44.534;18.700;2023-11-22T14:45:10;31.50;;;22.83;;
25511;SDS011;13414;44.534;18.700;2023-11-22T14:47:38;32.30;;;22.48;;
25511;SDS011;13414;44.534;18.700;2023-11-22T14:50:07;57.35;;;39.60;;
25511;SDS011;13414;44.534;18.700;2023-11-22T14:52:37;39.33;;;24.90;;
25511;SDS011;13414;44.534;18.700;2023-11-22T14:55:05;34.88;;;23.55;;
25511;SDS011;13414;44.534;18.700;2023-11-22T14:57:40;31.10;;;23.25;;
25511;SDS011;13414;44.534;18.700;2023-11-22T15:00:11;28.88;;;20.13;;
25511;SDS011;13414;44.534;18.700;2023-11-22T15:03:29;30.63;;;21.63;;
25511;SDS011;13414;44.534;18.700;2023-11-22T15:05:57;41.53;;;28.40;;
25511;SDS011;13414;44.534;18.700;2023-11-22T15:08:27;41.38;;;28.98;;
25511;SDS011;13414;44.534;18.700;2023-11-22T15:11:02;34.65;;;22.67;;
25511;SDS011;13414;44.534;18.700;2023-11-22T15:13:41;28.88;;;20.13;;
25511;SDS011;13414;44.534;18.700;2023-11-22T15:16:30;34.38;;;24.95;;
25511;SDS011;13414;44.534;18.700;2023-11-22T15:21:55;39.58;;;29.08;;
25511;SDS011;13414;44.534;18.700;2023-11-22T15:24:33;45.83;;;32.88;;
25511;SDS011;13414;44.534;18.700;2023-11-22T15:27:05;47.65;;;33.72;;
25511;SDS011;13414;44.534;18.700;2023-11-22T15:29:47;48.67;;;35.92;;
25511;SDS011;13414;44.534;18.700;2023-11-22T15:32:15;52.47;;;35.72;;
25511;SDS011;13414;44.534;18.700;2023-11-22T15:34:54;48.08;;;34.72;;
25511;SDS011;13414;44.534;18.700;2023-11-22T15:37:33;47.03;;;32.20;;
25511;SDS011;13414;44.534;18.700;2023-11-22T15:39:59;35.13;;;25.83;;
25511;SDS011;13414;44.534;18.700;2023-11-22T15:42:28;39.47;;;26.90;;
25511;SDS011;13414;44.534;18.700;2023-11-22T15:44:59;33.97;;;22.20;;
25511;SDS011;13414;44.534;18.700;2023-11-22T15:47:27;32.92;;;21.08;;
25511;SDS011;13414;44.534;18.700;2023-11-22T15:49:54;35.75;;;23.88;;
25511;SDS011;13414;44.534;18.700;2023-11-22T15:52:22;42.22;;;26.70;;
25511;SDS011;13414;44.534;18.700;2023-11-22T15:54:51;32.90;;;21.45;;
25511;SDS011;13414;44.534;18.700;2023-11-22T16:00:17;29.15;;;19.33;;
25511;SDS011;13414;44.534;18.700;2023-11-22T16:06:30;33.25;;;23.00;;
25511;SDS011;13414;44.534;18.700;2023-11-22T16:20:24;30.58;;;21.20;;
25511;SDS011;13414;44.534;18.700;2023-11-22T16:24:38;36.72;;;25.42;;
25511;SDS011;13414;44.534;18.700;2023-11-22T16:32:02;56.83;;;34.30;;
25511;SDS011;13414;44.534;18.700;2023-11-22T16:35:27;32.88;;;23.40;;
25511;SDS011;13414;44.534;18.700;2023-11-22T16:38:03;32.30;;;21.30;;
25511;SDS011;13414;44.534;18.700;2023-11-22T16:40:39;33.58;;;21.95;;
25511;SDS011;13414;44.534;18.700;2023-11-22T16:43:54;36.05;;;24.73;;
25511;SDS011;13414;44.534;18.700;2023-11-22T16:46:42;26.40;;;18.08;;
25511;SDS011;13414;44.534;18.700;2023-11-22T16:56:17;33.70;;;22.17;;
25511;SDS011;13414;44.534;18.700;2023-11-22T16:59:03;34.72;;;22.02;;
25511;SDS011;13414;44.534;18.700;2023-11-22T17:01:36;33.05;;;21.58;;
25511;SDS011;13414;44.534;18.700;2023-11-22T17:04:11;31.42;;;22.55;;
25511;SDS011;13414;44.534;18.700;2023-11-22T17:07:11;37.78;;;24.58;;
25511;SDS011;13414;44.534;18.700;2023-11-22T17:10:41;33.58;;;23.27;;
25511;SDS011;13414;44.534;18.700;2023-11-22T17:47:31;42.30;;;30.35;;
25511;SDS011;13414;44.534;18.700;2023-11-22T17:52:47;43.88;;;33.15;;
25511;SDS011;13414;44.534;18.700;2023-11-22T17:55:15;44.53;;;34.88;;
25511;SDS011;13414;44.534;18.700;2023-11-22T17:57:47;38.17;;;30.88;;
25511;SDS011;13414;44.534;18.700;2023-11-22T18:00:15;43.70;;;33.95;;
25511;SDS011;13414;44.534;18.700;2023-11-22T18:02:45;34.47;;;28.52;;
25511;SDS011;13414;44.534;18.700;2023-11-22T18:05:13;36.72;;;29.98;;
25511;SDS011;13414;44.534;18.700;2023-11-22T18:07:45;39.10;;;31.75;;
25511;SDS011;13414;44.534;18.700;2023-11-22T18:10:15;42.55;;;33.40;;
25511;SDS011;13414;44.534;18.700;2023-11-22T18:12:43;36.45;;;30.63;;
25511;SDS011;13414;44.534;18.700;2023-11-22T18:15:10;38.50;;;29.95;;
25511;SDS011;13414;44.534;18.700;2023-11-22T18:17:39;40.40;;;32.50;;
25511;SDS011;13414;44.534;18.700;2023-11-22T18:20:09;35.47;;;30.58;;
25511;SDS011;13414;44.534;18.700;2023-11-22T18:22:38;36.95;;;29.95;;
25511;SDS011;13414;44.534;18.700;2023-11-22T18:25:06;34.63;;;27.23;;
25511;SDS011;13414;44.534;18.700;2023-11-22T18:27:34;34.53;;;28.25;;
25511;SDS011;13414;44.534;18.700;2023-11-22T18:30:02;33.05;;;27.23;;
25511;SDS011;13414;44.534;18.700;2023-11-22T18:32:32;29.35;;;23.13;;
25511;SDS011;13414;44.534;18.700;2023-11-22T18:34:59;29.15;;;21.70;;
25511;SDS011;13414;44.534;18.700;2023-11-22T18:37:29;28.17;;;22.48;;
25511;SDS011;13414;44.534;18.700;2023-11-22T18:39:56;24.85;;;19.75;;
25511;SDS011;13414;44.534;18.700;2023-11-22T20:05:05;17.27;;;12.23;;
25511;SDS011;13414;44.534;18.700;2023-11-22T20:07:54;20.38;;;14.40;;
25511;SDS011;13414;44.534;18.700;2023-11-22T20:11:03;24.17;;;16.08;;
25511;SDS011;13414;44.534;18.700;2023-11-22T20:14:14;22.98;;;14.95;;
25511;SDS011;13414;44.534;18.700;2023-11-22T20:42:54;21.40;;;15.57;;
25511;SDS011;13414;44.534;18.700;2023-11-22T20:45:29;15.10;;;11.00;;
25511;SDS011;13414;44.534;18.700;2023-11-22T20:48:25;15.25;;;11.32;;
25511;SDS011;13414;44.534;18.700;2023-11-22T20:51:26;21.77;;;13.93;;
25511;SDS011;13414;44.534;18.700;2023-11-22T21:05:32;16.67;;;12.65;;
25511;SDS011;13414;44.534;18.700;2023-11-22T21:09:03;16.65;;;12.60;;
25511;SDS011;13414;44.534;18.700;2023-11-22T21:11:57;18.00;;;13.60;;
25511;SDS011;13414;44.534;18.700;2023-11-22T21:15:10;25.90;;;18.20;;
25511;SDS011;13414;44.534;18.700;2023-11-22T21:17:30;25.38;;;16.23;;
25511;SDS011;13414;44.534;18.700;2023-11-22T21:20:16;26.38;;;17.05;;
25511;SDS011;13414;44.534;18.700;2023-11-22T21:46:04;40.15;;;26.40;;
25511;SDS011;13414;44.534;18.700;2023-11-22T21:48:33;41.92;;;27.33;;
25511;SDS011;13414;44.534;18.700;2023-11-22T21:51:00;40.85;;;26.75;;
25511;SDS011;13414;44.534;18.700;2023-11-22T21:53:29;41.03;;;26.58;;
25511;SDS011;13414;44.534;18.700;2023-11-22T21:55:57;47.65;;;31.75;;
25511;SDS011;13414;44.534;18.700;2023-11-22T21:58:25;51.40;;;34.70;;
25511;SDS011;13414;44.534;18.700;2023-11-22T22:00:52;36.25;;;25.75;;
25511;SDS011;13414;44.534;18.700;2023-11-22T22:03:22;37.05;;;26.33;;
25511;SDS011;13414;44.534;18.700;2023-11-22T22:05:49;47.15;;;31.40;;
25511;SDS011;13414;44.534;18.700;2023-11-22T22:08:17;38.30;;;27.67;;
25511;SDS011;13414;44.534;18.700;2023-11-22T22:10:45;44.13;;;30.45;;
25511;SDS011;13414;44.534;18.700;2023-11-22T22:13:16;31.05;;;21.27;;
25511;SDS011;13414;44.534;18.700;2023-11-22T22:15:46;22.05;;;15.40;;
25511;SDS011;13414;44.534;18.700;2023-11-22T22:18:14;38.80;;;25.63;;
25511;SDS011;13414;44.534;18.700;2023-11-22T22:20:43;22.90;;;17.10;;
25511;SDS011;13414;44.534;18.700;2023-11-22T22:23:12;24.60;;;17.45;;
25511;SDS011;13414;44.534;18.700;2023-11-22T22:25:41;33.00;;;21.25;;
25511;SDS011;13414;44.534;18.700;2023-11-22T22:28:09;25.80;;;17.73;;
25511;SDS011;13414;44.534;18.700;2023-11-22T22:30:37;15.95;;;12.23;;
25511;SDS011;13414;44.534;18.700;2023-11-22T22:33:05;19.40;;;14.75;;
25511;SDS011;13414;44.534;18.700;2023-11-22T22:35:33;18.95;;;13.95;;
25511;SDS011;13414;44.534;18.700;2023-11-22T22:38:02;18.55;;;14.27;;
25511;SDS011;13414;44.534;18.700;2023-11-22T22:40:30;18.23;;;14.63;;
25511;SDS011;13414;44.534;18.700;2023-11-22T22:43:00;21.20;;;15.23;;
25511;SDS011;13414;44.534;18.700;2023-11-22T22:45:28;26.15;;;19.38;;
25511;SDS011;13414;44.534;18.700;2023-11-22T22:47:56;30.15;;;21.77;;
25511;SDS011;13414;44.534;18.700;2023-11-22T22:50:24;18.35;;;15.60;;
25511;SDS011;13414;44.534;18.700;2023-11-22T22:52:51;21.02;;;16.88;;
25511;SDS011;13414;44.534;18.700;2023-11-22T22:55:20;19.23;;;15.68;;
25511;SDS011;13414;44.534;18.700;2023-11-22T22:57:48;20.73;;;15.57;;
25511;SDS011;13414;44.534;18.700;2023-11-22T23:00:16;17.33;;;13.75;;
25511;SDS011;13414;44.534;18.700;2023-11-22T23:05:24;20.17;;;14.43;;
25511;SDS011;13414;44.534;18.700;2023-11-22T23:07:51;18.65;;;14.63;;
25511;SDS011;13414;44.534;18.700;2023-11-22T23:10:20;21.90;;;16.20;;
25511;SDS011;13414;44.534;18.700;2023-11-22T23:12:50;18.42;;;14.20;;
25511;SDS011;13414;44.534;18.700;2023-11-22T23:15:19;19.38;;;14.35;;
25511;SDS011;13414;44.534;18.700;2023-11-22T23:17:48;18.38;;;13.48;;
25511;SDS011;13414;44.534;18.700;2023-11-22T23:20:16;18.48;;;13.45;;
25511;SDS011;13414;44.534;18.700;2023-11-22T23:22:44;23.10;;;15.40;;
25511;SDS011;13414;44.534;18.700;2023-11-22T23:25:13;21.73;;;14.93;;
25511;SDS011;13414;44.534;18.700;2023-11-22T23:27:42;20.48;;;14.02;;
25511;SDS011;13414;44.534;18.700;2023-11-22T23:30:12;18.48;;;13.65;;
25511;SDS011;13414;44.534;18.700;2023-11-22T23:32:41;19.50;;;14.32;;
25511;SDS011;13414;44.534;18.700;2023-11-22T23:35:09;22.92;;;15.50;;
25511;SDS011;13414;44.534;18.700;2023-11-22T23:37:38;22.27;;;14.05;;
25511;SDS011;13414;44.534;18.700;2023-11-22T23:40:07;24.15;;;15.50;;
25511;SDS011;13414;44.534;18.700;2023-11-22T23:42:38;23.98;;;15.55;;
25511;SDS011;13414;44.534;18.700;2023-11-22T23:45:08;26.33;;;16.63;;
25511;SDS011;13414;44.534;18.700;2023-11-22T23:47:39;25.63;;;17.50;;
25511;SDS011;13414;44.534;18.700;2023-11-22T23:50:07;32.40;;;19.27;;
25511;SDS011;13414;44.534;18.700;2023-11-22T23:52:37;26.98;;;16.52;;
25511;SDS011;13414;44.534;18.700;2023-11-22T23:55:05;16.98;;;12.60;;
25511;SDS011;13414;44.534;18.700;2023-11-22T23:57:35;18.27;;;13.55;;
